TimeCET,TemperatureF,Dew PointF,Humidity,Sea Level PressureIn,VisibilityMPH,Wind Direction,Wind SpeedMPH,Gust SpeedMPH,PrecipitationIn,Events,Conditions,WindDirDegrees,DateUTC
12:55 AM,30.2,-7.6,19,30.09,-9999.0,SE,5.8,-,N/A,,Clear,130,2013-12-18 23:55:00
1:00 AM,30,-8,8,,6,SE,5.8,,,,Scattered Clouds,130,2013-12-19 00:00:00
3:55 AM,26.6,-4.0,26,30.06,-9999.0,ESE,10.4,-,N/A,,Clear,120,2013-12-19 02:55:00
4:00 AM,27,-5,12,,6,ESE,10.4,,,,,120,2013-12-19 03:00:00
4:55 AM,26.6,-4.0,26,30.04,-9999.0,ESE,9.2,-,N/A,,Clear,120,2013-12-19 03:55:00
5:55 AM,26.6,-2.2,29,30.04,-9999.0,ESE,12.7,-,N/A,,Clear,110,2013-12-19 04:55:00
6:55 AM,24.8,-0.4,34,30.01,-9999.0,ESE,13.8,-,N/A,,Clear,120,2013-12-19 05:55:00
7:00 AM,26,0,19,,12,ESE,13.8,,,,Partly Cloudy,120,2013-12-19 06:00:00
7:55 AM,24.8,5.0,43,29.98,-9999.0,ESE,17.3,-,N/A,,Clear,110,2013-12-19 06:55:00
8:55 AM,26.6,12.2,55,29.98,-9999.0,SE,12.7,-,N/A,,Clear,130,2013-12-19 07:55:00
9:55 AM,26.6,17.6,69,29.98,-9999.0,ESE,9.2,-,N/A,,Clear,110,2013-12-19 08:55:00
10:00 AM,27,18,57,,47,ESE,9.2,,,,Partly Cloudy,110,2013-12-19 09:00:00
10:55 AM,28.4,23.0,80,29.98,6.2,ESE,9.2,-,N/A,,Partly Cloudy,110,2013-12-19 09:55:00
11:55 AM,30.2,24.8,80,29.98,6.2,SE,10.4,-,N/A,,Mostly Cloudy,140,2013-12-19 10:55:00
12:55 PM,28.4,23.0,80,29.98,6.2,ESE,9.2,-,N/A,,Mostly Cloudy,120,2013-12-19 11:55:00
1:00 PM,28,23,72,,19,ESE,9.2,,,,Mostly Cloudy,120,2013-12-19 12:00:00
1:55 PM,28.4,23.0,80,29.98,6.2,ESE,6.9,-,N/A,,Overcast,120,2013-12-19 12:55:00
2:55 PM,28.4,23.0,80,29.95,6.2,ESE,5.8,-,N/A,,Overcast,120,2013-12-19 13:55:00
3:55 PM,28.4,23.0,80,29.95,6.2,ESE,1.2,-,N/A,,Overcast,110,2013-12-19 14:55:00
4:00 PM,28,23,72,,12,ESE,1.2,,,,Overcast,110,2013-12-19 15:00:00
4:55 PM,26.6,23.0,86,29.95,6.2,SE,4.6,-,N/A,,Overcast,140,2013-12-19 15:55:00
5:55 PM,24.8,23.0,93,29.95,6.2,ESE,13.8,-,N/A,,Overcast,120,2013-12-19 16:55:00
6:55 PM,26.6,24.8,93,29.95,6.2,SE,13.8,-,N/A,,Overcast,130,2013-12-19 17:55:00
7:00 PM,26,26,98,,6,SE,13.8,,,,Overcast,130,2013-12-19 18:00:00
9:55 PM,26.6,24.8,93,29.95,0.1,ESE,6.9,-,N/A,Fog,Light Freezing Fog,120,2013-12-19 20:55:00
10:00 PM,27,25,90,,0,ESE,6.9,,,Fog,Heavy Fog,120,2013-12-19 21:00:00